Time;durP1;ratioP1;P1;durP2;ratioP2;P2;SDS_P1;SDS_P2;PMS_P1;PMS_P2;Temp;Humidity;BMP_temperature;BMP_pressure;BME280_temperature;BME280_humidity;BME280_pressure;Samples;Min_cycle;Max_cycle;Signal;HPM_P1;HPM_P2
2021/05/29 00:00:40;;;;;;;15.97;14.30;;;;;;;12.52;60.35;102046.75;5041246;28;20174;-65
2021/05/29 00:03:05;;;;;;;15.53;13.93;;;;;;;12.15;61.44;102055.47;5040720;28;20174;-65
2021/05/29 00:05:30;;;;;;;18.07;16.17;;;;;;;12.69;60.61;102052.38;5040728;28;20185;-65
2021/05/29 00:07:56;;;;;;;18.70;15.20;;;;;;;12.38;60.64;102054.31;5040894;28;20186;-65
2021/05/29 00:10:21;;;;;;;20.17;15.63;;;;;;;12.16;61.22;102045.03;5039857;28;20422;-65
2021/05/29 00:12:46;;;;;;;20.57;17.07;;;;;;;12.18;61.70;102048.59;5040675;28;20171;-64
2021/05/29 00:15:12;;;;;;;19.13;17.00;;;;;;;12.48;60.76;102044.94;5041050;28;20177;-65
2021/05/29 00:17:37;;;;;;;23.00;18.03;;;;;;;12.25;60.89;102045.28;5042885;28;20238;-65
2021/05/29 00:20:04;;;;;;;19.70;17.60;;;;;;;12.08;61.48;102043.97;5060455;28;20200;-64
2021/05/29 00:22:29;;;;;;;20.87;18.47;;;;;;;12.21;61.20;102045.19;5060572;28;20439;-64
2021/05/29 00:24:54;;;;;;;20.00;16.87;;;;;;;12.03;61.55;102046.50;5060159;28;20464;-65
2021/05/29 00:27:20;;;;;;;23.40;20.07;;;;;;;12.24;61.68;102051.34;5060311;28;20589;-65
2021/05/29 00:29:45;;;;;;;18.20;16.30;;;;;;;12.00;61.52;102054.28;5060141;28;20531;-64
2021/05/29 00:32:10;;;;;;;21.37;18.60;;;;;;;11.92;62.28;102050.53;5058688;28;20181;-65
2021/05/29 00:34:36;;;;;;;21.33;18.50;;;;;;;11.89;62.36;102053.97;5060112;28;20170;-65
2021/05/29 00:37:01;;;;;;;20.97;18.77;;;;;;;11.63;62.89;102061.97;5060384;28;20158;-65
2021/05/29 00:39:26;;;;;;;23.10;19.50;;;;;;;11.63;63.19;102053.28;5060076;28;20574;-65
2021/05/29 00:41:52;;;;;;;27.20;21.17;;;;;;;11.78;63.12;102053.69;5059603;28;20288;-65
2021/05/29 00:44:17;;;;;;;24.70;21.30;;;;;;;11.92;62.24;102058.34;5060210;28;20174;-65
2021/05/29 00:46:42;;;;;;;27.20;22.77;;;;;;;11.71;63.21;102066.53;5043050;28;20480;-64
2021/05/29 00:49:08;;;;;;;22.60;20.23;;;;;;;11.90;62.76;102060.94;5059632;28;20166;-65
2021/05/29 00:51:33;;;;;;;24.50;20.40;;;;;;;11.82;62.96;102070.31;5059934;28;20523;-66
2021/05/29 00:53:58;;;;;;;28.10;22.30;;;;;;;11.92;62.72;102069.72;5059592;28;20169;-65
2021/05/29 00:56:24;;;;;;;22.67;19.40;;;;;;;11.77;63.10;102072.81;5058916;28;20165;-67
2021/05/29 00:58:49;;;;;;;23.27;20.20;;;;;;;12.17;62.01;102066.88;5059423;28;20166;-66
2021/05/29 01:01:15;;;;;;;25.90;20.73;;;;;;;12.05;62.35;102065.69;5041679;28;20197;-67
2021/05/29 01:03:41;;;;;;;23.53;17.67;;;;;;;11.90;62.51;102067.91;5039377;28;20422;-66
2021/05/29 01:06:06;;;;;;;21.00;18.70;;;;;;;11.82;62.56;102067.69;5039705;28;20205;-66
2021/05/29 01:08:32;;;;;;;22.50;19.20;;;;;;;11.56;63.06;102059.19;5039374;28;20170;-67
2021/05/29 01:10:57;;;;;;;22.03;19.60;;;;;;;11.80;63.44;102070.28;5051189;28;20196;-66
2021/05/29 01:13:29;;;;;;;23.77;21.20;;;;;;;12.05;62.17;102060.47;5059654;28;20173;-66
2021/05/29 01:15:59;;;;;;;23.33;20.93;;;;;;;12.00;62.46;102063.81;5059308;28;20165;-66
2021/05/29 01:18:25;;;;;;;24.23;21.63;;;;;;;11.83;62.71;102069.47;5059105;28;20408;-67
2021/05/29 01:20:50;;;;;;;22.73;20.30;;;;;;;11.67;63.17;102072.53;5059097;28;20412;-67
2021/05/29 01:23:15;;;;;;;23.17;20.60;;;;;;;11.38;64.45;102076.13;5058992;28;20433;-67
2021/05/29 01:25:46;;;;;;;23.30;20.90;;;;;;;11.67;63.69;102072.53;5047539;28;20229;-66
2021/05/29 01:28:17;;;;;;;25.50;20.90;;;;;;;11.63;63.83;102068.94;5039156;28;20439;-67
2021/05/29 01:30:49;;;;;;;27.50;21.03;;;;;;;11.51;63.89;102074.72;5039366;28;20405;-66
2021/05/29 01:33:17;;;;;;;23.87;21.27;;;;;;;11.85;62.84;102074.75;5041986;28;20424;-66
2021/05/29 01:35:43;;;;;;;23.03;17.70;;;;;;;11.92;62.69;102069.72;5058890;28;20412;-66
2021/05/29 01:38:09;;;;;;;24.00;19.00;;;;;;;11.67;64.14;102076.03;5059021;28;20466;-66
2021/05/29 01:40:34;;;;;;;21.10;17.50;;;;;;;11.39;64.66;102077.00;5057953;28;20424;-67
2021/05/29 01:43:02;;;;;;;16.70;14.90;;;;;;;11.37;64.66;102084.78;5057475;28;20174;-66
2021/05/29 01:45:28;;;;;;;19.60;15.80;;;;;;;11.54;64.58;102081.75;5038013;28;20170;-67
2021/05/29 01:47:54;;;;;;;21.23;16.43;;;;;;;11.67;64.13;102089.09;5037932;28;20518;-67
2021/05/29 01:50:19;;;;;;;22.03;15.87;;;;;;;11.77;63.70;102084.97;5040306;28;20518;-66
2021/05/29 01:52:55;;;;;;;17.87;15.97;;;;;;;11.71;63.48;102087.44;5038772;28;20217;-66
2021/05/29 01:55:24;;;;;;;20.33;14.10;;;;;;;11.56;64.70;102085.31;5039179;28;20170;-66
2021/05/29 01:57:50;;;;;;;19.67;16.57;;;;;;;11.61;64.50;102092.41;5039411;28;20396;-66
2021/05/29 02:00:17;;;;;;;19.30;16.20;;;;;;;11.88;63.26;102093.09;5038506;28;20409;-66
2021/05/29 02:02:42;;;;;;;20.63;16.23;;;;;;;11.83;62.93;102092.13;5038028;28;20437;-66
2021/05/29 02:05:16;;;;;;;23.17;17.23;;;;;;;11.85;63.58;102098.25;5038584;28;20451;-66
2021/05/29 02:07:42;;;;;;;22.00;18.97;;;;;;;11.91;62.82;102081.00;5041417;28;20215;-66
2021/05/29 02:10:10;;;;;;;53.63;40.10;;;;;;;11.92;63.24;102094.94;5058985;28;20400;-66
2021/05/29 02:12:40;;;;;;;24.70;20.90;;;;;;;11.57;63.91;102093.19;5058048;28;20223;-66
2021/05/29 02:15:07;;;;;;;22.27;19.60;;;;;;;11.50;64.54;102096.47;5058228;28;20420;-66
2021/05/29 02:17:32;;;;;;;25.87;22.03;;;;;;;11.64;63.24;102094.22;5058489;28;20426;-66
2021/05/29 02:19:58;;;;;;;22.90;19.13;;;;;;;11.70;63.32;102088.28;5058137;28;20383;-66
2021/05/29 02:22:23;;;;;;;23.30;19.93;;;;;;;11.78;63.41;102081.53;5057901;28;20506;-67
2021/05/29 02:24:48;;;;;;;21.60;18.90;;;;;;;11.78;62.99;102092.88;5041080;28;20268;-65
2021/05/29 02:27:14;;;;;;;25.27;22.53;;;;;;;12.07;62.20;102079.72;5038161;28;20271;-66
2021/05/29 02:29:39;;;;;;;23.90;20.20;;;;;;;12.01;62.37;102084.75;5038214;28;20171;-67
2021/05/29 02:32:04;;;;;;;26.07;22.47;;;;;;;11.79;63.17;102089.41;5037962;28;20170;-65
2021/05/29 02:34:30;;;;;;;24.50;21.40;;;;;;;11.73;63.37;102088.34;5037601;28;20674;-66
2021/05/29 02:36:55;;;;;;;24.20;21.40;;;;;;;11.80;63.26;102090.31;5038390;28;20250;-67
2021/05/29 02:39:20;;;;;;;26.43;22.07;;;;;;;11.79;62.99;102085.91;5038942;28;20182;-67
2021/05/29 02:41:46;;;;;;;24.60;21.40;;;;;;;11.72;63.13;102097.06;5037656;28;20508;-66
2021/05/29 02:44:11;;;;;;;26.63;20.30;;;;;;;11.68;62.92;102098.69;5038434;28;20165;-66
2021/05/29 02:46:36;;;;;;;27.60;22.43;;;;;;;11.92;62.47;102085.41;5037830;28;20198;-67
2021/05/29 02:49:02;;;;;;;24.33;21.53;;;;;;;11.45;64.06;102096.34;5037866;28;20182;-65
2021/05/29 02:51:27;;;;;;;24.77;22.07;;;;;;;11.79;63.25;102094.63;5038156;28;20406;-66
2021/05/29 02:53:53;;;;;;;24.93;22.40;;;;;;;11.61;63.35;102099.38;5038872;28;20189;-66
2021/05/29 02:56:18;;;;;;;28.50;22.57;;;;;;;11.66;63.32;102099.50;5057800;28;20166;-66
2021/05/29 02:58:43;;;;;;;24.40;21.80;;;;;;;11.69;63.51;102091.72;5057288;28;20165;-66
2021/05/29 03:01:08;;;;;;;30.37;23.23;;;;;;;11.89;62.71;102087.94;5057603;28;20185;-66
2021/05/29 03:03:34;;;;;;;25.80;22.67;;;;;;;11.69;63.07;102090.03;5057805;28;20252;-66
2021/05/29 03:05:59;;;;;;;24.17;21.57;;;;;;;11.60;63.08;102081.94;5058044;28;20205;-66
2021/05/29 03:08:24;;;;;;;25.60;20.77;;;;;;;11.53;63.50;102085.19;5057588;28;20169;-66
2021/05/29 03:10:51;;;;;;;28.90;23.53;;;;;;;11.59;63.75;102086.25;5044851;28;20174;-66
2021/05/29 03:13:17;;;;;;;27.20;23.40;;;;;;;11.62;63.58;102086.34;5037771;28;20186;-66
2021/05/29 03:15:43;;;;;;;24.70;21.80;;;;;;;11.50;63.42;102085.13;5052664;28;20852;-66
2021/05/29 03:18:09;;;;;;;26.50;22.20;;;;;;;11.40;63.54;102089.22;5057470;28;20426;-66
2021/05/29 03:20:35;;;;;;;24.13;21.50;;;;;;;11.52;63.67;102088.69;5057860;28;20406;-66
2021/05/29 03:23:00;;;;;;;38.00;29.37;;;;;;;11.38;64.31;102097.00;5057405;28;20178;-66
2021/05/29 03:25:26;;;;;;;71.20;51.10;;;;;;;11.62;63.75;102103.75;5055242;28;20229;-66
2021/05/29 03:27:53;;;;;;;23.03;19.83;;;;;;;11.41;64.17;102106.66;5057693;28;20250;-66
2021/05/29 03:30:22;;;;;;;22.87;19.17;;;;;;;11.76;63.71;102106.75;5056635;28;20192;-66
2021/05/29 03:32:47;;;;;;;22.47;19.20;;;;;;;11.80;63.30;102105.97;5057341;28;20416;-66
2021/05/29 03:35:13;;;;;;;41.97;29.43;;;;;;;11.50;64.31;102101.69;5057745;28;20519;-65
2021/05/29 03:37:39;;;;;;;25.00;18.30;;;;;;;11.37;64.26;102110.91;5057314;28;20254;-67
2021/05/29 03:40:06;;;;;;;16.67;14.50;;;;;;;11.70;63.09;102107.44;5057079;28;20411;-66
2021/05/29 03:42:31;;;;;;;18.13;15.17;;;;;;;11.59;62.90;102103.66;5055681;28;20299;-66
2021/05/29 03:44:56;;;;;;;18.40;15.47;;;;;;;11.53;63.91;102104.38;5057646;28;20857;-66
2021/05/29 03:47:22;;;;;;;23.30;18.50;;;;;;;11.33;63.99;102109.03;5060961;28;20212;-67
2021/05/29 03:49:47;;;;;;;23.37;19.40;;;;;;;11.60;63.21;102105.44;5061270;28;20169;-66
2021/05/29 03:52:12;;;;;;;22.17;18.00;;;;;;;11.74;62.30;102101.44;5060752;28;20475;-67
2021/05/29 03:54:37;;;;;;;21.33;16.33;;;;;;;11.94;62.16;102104.63;5055768;28;20198;-65
2021/05/29 03:57:03;;;;;;;24.77;17.33;;;;;;;11.98;62.29;102105.59;5049195;28;20215;-66
2021/05/29 03:59:29;;;;;;;20.23;15.97;;;;;;;11.73;62.44;102110.16;5051371;28;20194;-67
2021/05/29 04:01:54;;;;;;;20.67;17.33;;;;;;;11.71;62.91;102104.00;5040598;28;20259;-66
2021/05/29 04:04:19;;;;;;;24.20;17.57;;;;;;;11.59;63.56;102109.75;5041097;28;20252;-66
2021/05/29 04:06:45;;;;;;;20.43;17.13;;;;;;;11.76;63.42;102111.97;5040822;28;20538;-66
2021/05/29 04:09:10;;;;;;;23.43;18.10;;;;;;;11.53;63.81;102112.22;5040464;28;20485;-66
2021/05/29 04:11:36;;;;;;;24.83;19.53;;;;;;;11.99;62.51;102112.59;5043393;28;20193;-66
2021/05/29 04:14:02;;;;;;;24.87;19.50;;;;;;;12.12;61.87;102113.78;5060616;28;20174;-66
2021/05/29 04:16:27;;;;;;;21.83;18.33;;;;;;;11.65;63.12;102109.06;5060509;28;20531;-66
2021/05/29 04:18:52;;;;;;;21.20;18.37;;;;;;;11.86;63.10;102113.97;5060703;28;20412;-66
2021/05/29 04:21:19;;;;;;;23.50;20.00;;;;;;;12.08;62.20;102110.22;5060098;28;20205;-66
2021/05/29 04:23:44;;;;;;;23.90;19.13;;;;;;;11.80;63.00;102104.25;5042227;28;20260;-66
2021/05/29 04:26:10;;;;;;;25.37;18.67;;;;;;;11.68;63.15;102110.88;5040144;28;20483;-66
2021/05/29 04:28:37;;;;;;;27.87;20.90;;;;;;;11.80;63.47;102112.09;5040085;28;20210;-66
2021/05/29 04:31:03;;;;;;;22.93;18.17;;;;;;;11.93;62.93;102120.25;5074251;28;20435;-66
2021/05/29 04:33:28;;;;;;;26.37;19.07;;;;;;;11.69;63.99;102117.84;5062896;28;20688;-65
2021/05/29 04:35:53;;;;;;;23.70;20.60;;;;;;;11.80;63.69;102119.91;5059103;28;20427;-65
2021/05/29 04:38:19;;;;;;;24.30;19.57;;;;;;;11.80;63.36;102119.91;5049444;28;20185;-66
2021/05/29 04:40:44;;;;;;;24.10;18.90;;;;;;;11.82;63.22;102119.97;5058945;28;20230;-67
2021/05/29 04:43:09;;;;;;;22.70;19.17;;;;;;;11.89;63.13;102116.69;5059801;28;20184;-67
2021/05/29 04:45:35;;;;;;;21.50;19.20;;;;;;;11.98;62.69;102121.28;5060463;28;20419;-67
2021/05/29 04:48:00;;;;;;;25.60;22.33;;;;;;;12.06;62.50;102124.09;5052529;28;20244;-67
2021/05/29 04:50:25;;;;;;;24.50;20.00;;;;;;;11.76;63.24;102125.91;5050144;28;20221;-67
2021/05/29 04:52:51;;;;;;;20.80;18.50;;;;;;;12.12;62.51;102129.47;5040049;28;20261;-68
2021/05/29 04:55:16;;;;;;;29.70;19.03;;;;;;;12.08;62.20;102123.31;5039724;28;20253;-68
2021/05/29 04:57:42;;;;;;;19.17;15.73;;;;;;;11.63;63.92;102123.81;5038931;28;20185;-67
2021/05/29 05:00:10;;;;;;;21.30;17.97;;;;;;;12.28;61.77;102131.63;5042538;28;20186;-67
2021/05/29 05:02:35;;;;;;;22.93;17.93;;;;;;;12.03;63.01;102124.91;5039612;28;20510;-65
2021/05/29 05:05:01;;;;;;;22.27;17.50;;;;;;;11.83;63.15;102124.34;5038907;28;20865;-67
2021/05/29 05:07:26;;;;;;;16.23;14.27;;;;;;;12.05;62.68;102120.59;5039592;28;20612;-67
2021/05/29 05:09:52;;;;;;;18.20;14.63;;;;;;;12.01;62.82;102121.34;5039556;28;20583;-67
2021/05/29 05:13:01;;;;;;;20.10;14.83;;;;;;;11.92;63.01;102124.59;5043759;28;20185;-67
2021/05/29 05:15:26;;;;;;;15.67;13.50;;;;;;;12.15;62.11;102123.44;5055172;28;20282;-67
2021/05/29 05:17:51;;;;;;;15.07;13.47;;;;;;;11.67;63.21;102123.03;5053872;28;20484;-67
2021/05/29 05:20:17;;;;;;;15.00;13.10;;;;;;;12.35;61.69;102132.66;5043603;28;20252;-66
2021/05/29 05:22:44;;;;;;;17.03;12.87;;;;;;;12.24;61.76;102134.13;5043480;28;20209;-68
2021/05/29 05:25:09;;;;;;;14.40;12.47;;;;;;;11.93;63.11;102128.09;5044211;28;20225;-68
2021/05/29 05:27:35;;;;;;;15.93;14.23;;;;;;;12.23;61.80;102132.38;5058895;28;20521;-67
2021/05/29 05:30:00;;;;;;;17.00;13.07;;;;;;;12.10;62.15;102139.03;5059157;28;20252;-68
2021/05/29 05:32:26;;;;;;;15.90;13.40;;;;;;;11.84;62.23;102138.28;5058810;28;20174;-67
2021/05/29 05:34:52;;;;;;;17.03;13.53;;;;;;;12.52;60.83;102132.22;5055887;28;20185;-66
2021/05/29 05:37:17;;;;;;;16.50;13.80;;;;;;;12.33;60.85;102139.59;5039370;28;20850;-67
2021/05/29 05:39:43;;;;;;;15.80;13.53;;;;;;;11.93;62.04;102149.00;5039067;28;20560;-67
2021/05/29 05:42:08;;;;;;;14.83;13.27;;;;;;;11.79;62.15;102152.09;5042047;28;20610;-66
2021/05/29 05:44:34;;;;;;;14.80;13.20;;;;;;;11.99;61.37;102156.13;5059839;28;20166;-67
2021/05/29 05:46:59;;;;;;;13.70;11.03;;;;;;;11.85;61.71;102155.75;5053862;28;20281;-66
2021/05/29 05:49:25;;;;;;;13.17;11.77;;;;;;;12.23;60.79;102163.72;5045807;28;20279;-67
2021/05/29 05:51:50;;;;;;;14.40;12.00;;;;;;;12.03;61.18;102158.88;5038949;28;20528;-67
2021/05/29 05:54:15;;;;;;;14.17;12.20;;;;;;;12.37;60.59;102166.72;5054678;28;20185;-66
2021/05/29 05:56:41;;;;;;;17.20;13.73;;;;;;;12.19;60.42;102162.78;5038515;28;20181;-66
2021/05/29 05:59:06;;;;;;;13.33;11.93;;;;;;;12.05;61.45;102158.94;5056125;28;20186;-66
2021/05/29 06:01:31;;;;;;;15.67;13.40;;;;;;;12.10;61.32;102158.19;5053714;28;20221;-66
2021/05/29 06:03:57;;;;;;;15.87;12.40;;;;;;;12.20;61.00;102161.94;5055616;28;20169;-66
2021/05/29 06:06:23;;;;;;;20.10;13.70;;;;;;;12.10;61.38;102158.19;5051025;28;20205;-66
2021/05/29 06:08:48;;;;;;;15.93;11.30;;;;;;;12.16;61.69;102162.69;5054538;28;20181;-65
2021/05/29 06:11:14;;;;;;;12.63;11.33;;;;;;;12.37;60.79;102158.88;5056138;28;20509;-66
2021/05/29 06:21:37;;;;;;;11.77;10.37;;;;;;;12.18;61.74;102181.94;5038050;28;20808;-66
2021/05/29 06:24:04;;;;;;;13.23;11.70;;;;;;;12.01;62.33;102189.31;5037918;28;20830;-67
2021/05/29 06:26:29;;;;;;;12.87;11.47;;;;;;;12.35;61.36;102184.97;5036864;28;20479;-67
2021/05/29 06:28:55;;;;;;;15.30;12.50;;;;;;;12.06;61.85;102184.22;5038107;28;20476;-65
2021/05/29 06:31:21;;;;;;;18.07;16.17;;;;;;;12.30;61.27;102184.84;5037529;28;20537;-67
2021/05/29 06:33:46;;;;;;;16.70;13.20;;;;;;;12.35;60.67;102187.59;5037553;28;20517;-66
2021/05/29 06:36:12;;;;;;;14.37;12.87;;;;;;;12.08;61.98;102185.13;5037960;28;20185;-65
2021/05/29 06:38:37;;;;;;;18.07;15.47;;;;;;;11.94;61.70;102192.59;5038029;28;20174;-66
2021/05/29 06:41:03;;;;;;;15.90;14.10;;;;;;;11.49;62.67;102196.56;5037810;28;20166;-66
2021/05/29 06:43:29;;;;;;;16.60;14.40;;;;;;;11.84;62.12;102201.91;5038705;28;20174;-67
2021/05/29 06:45:54;;;;;;;21.30;17.40;;;;;;;12.18;61.14;102191.47;5037845;28;20413;-66
2021/05/29 06:48:21;;;;;;;21.70;17.10;;;;;;;12.17;61.25;102192.34;5038013;28;20204;-66
2021/05/29 06:50:53;;;;;;;22.53;16.30;;;;;;;12.29;60.26;102193.53;5038263;28;20536;-66
2021/05/29 06:53:23;;;;;;;22.17;18.73;;;;;;;12.45;60.34;102194.81;5037691;28;20468;-65
2021/05/29 06:58:51;;;;;;;18.80;16.80;;;;;;;12.89;59.03;102193.25;5037731;28;20491;-66
2021/05/29 07:01:22;;;;;;;19.30;16.40;;;;;;;12.64;58.88;102195.28;5037623;28;20527;-67
2021/05/29 07:03:49;;;;;;;18.83;16.87;;;;;;;12.65;59.50;102204.91;5037605;28;20471;-67
2021/05/29 07:06:14;;;;;;;25.27;16.17;;;;;;;13.04;58.41;102193.59;5037754;28;20518;-66
2021/05/29 07:08:40;;;;;;;17.37;15.60;;;;;;;12.89;58.10;102193.25;5038550;28;20722;-67
2021/05/29 07:11:05;;;;;;;21.20;15.90;;;;;;;13.08;57.73;102195.47;5037487;28;20224;-66
2021/05/29 07:13:31;;;;;;;22.83;16.47;;;;;;;13.21;57.19;102196.59;5037715;28;20178;-66
2021/05/29 07:15:56;;;;;;;16.97;14.73;;;;;;;13.08;57.39;102195.47;5038013;28;20533;-66
2021/05/29 07:18:24;;;;;;;19.87;17.67;;;;;;;13.54;56.39;102202.56;5037335;28;20208;-67
2021/05/29 07:20:50;;;;;;;18.83;15.03;;;;;;;12.92;57.53;102198.56;5040857;28;20170;-66
2021/05/29 07:23:15;;;;;;;19.50;17.07;;;;;;;13.08;57.20;102205.94;5041596;28;20628;-66
2021/05/29 07:25:42;;;;;;;20.60;18.50;;;;;;;13.03;57.71;102202.31;5041191;28;20222;-67
2021/05/29 07:28:08;;;;;;;19.33;17.30;;;;;;;12.84;57.93;102207.97;5041450;28;20301;-68
2021/05/29 07:30:33;;;;;;;18.90;16.90;;;;;;;13.11;57.22;102215.56;5041926;28;20728;-68
2021/05/29 07:32:58;;;;;;;19.67;17.27;;;;;;;13.23;56.70;102214.97;5041061;28;20416;-68
2021/05/29 07:35:27;;;;;;;21.63;18.03;;;;;;;13.13;57.16;102220.00;5041147;28;20549;-69
2021/05/29 07:37:52;;;;;;;21.02;18.77;;;;;;;13.52;55.76;102222.59;5041348;28;20786;-66
2021/05/29 07:40:17;;;;;;;18.57;16.63;;;;;;;13.49;56.17;102215.59;5059614;28;20235;-69
2021/05/29 07:42:44;;;;;;;20.70;16.67;;;;;;;13.63;55.73;102221.13;5060922;28;20166;-67
2021/05/29 07:45:10;;;;;;;19.00;17.03;;;;;;;13.64;55.67;102225.50;5061326;28;20248;-66
2021/05/29 07:47:36;;;;;;;18.53;16.60;;;;;;;13.04;57.43;102224.16;5060709;28;20455;-67
2021/05/29 07:50:02;;;;;;;19.73;17.80;;;;;;;13.46;56.59;102225.97;5060951;28;20679;-67
2021/05/29 07:52:27;;;;;;;19.10;17.30;;;;;;;13.44;56.16;102225.09;5061686;28;20210;-66
2021/05/29 07:54:52;;;;;;;19.77;17.00;;;;;;;13.64;56.51;102233.38;5060758;28;20169;-66
2021/05/29 07:57:18;;;;;;;20.80;18.30;;;;;;;13.51;55.68;102229.59;5060559;28;20181;-65
2021/05/29 07:59:43;;;;;;;20.73;18.53;;;;;;;14.43;53.57;102225.25;5061116;28;20539;-66
2021/05/29 08:02:09;;;;;;;18.33;16.43;;;;;;;14.09;53.73;102232.50;5060323;28;20188;-69
2021/05/29 08:04:35;;;;;;;17.93;16.03;;;;;;;14.33;53.40;102225.97;5060692;28;20212;-66
2021/05/29 08:07:00;;;;;;;19.17;17.33;;;;;;;13.97;53.86;102234.91;5060604;28;20524;-66
2021/05/29 08:09:26;;;;;;;19.77;17.63;;;;;;;14.47;52.37;102229.69;5060504;28;20196;-66
2021/05/29 08:11:52;;;;;;;19.53;17.63;;;;;;;14.54;53.15;102227.19;5060468;28;20445;-67
2021/05/29 08:14:17;;;;;;;17.80;15.80;;;;;;;14.29;53.65;102232.88;5060716;28;20403;-66
2021/05/29 08:16:43;;;;;;;15.30;13.80;;;;;;;14.94;51.29;102220.00;5060535;28;20169;-67
2021/05/29 08:19:11;;;;;;;14.77;13.33;;;;;;;15.23;50.36;102216.91;5060123;28;20189;-67
2021/05/29 08:21:38;;;;;;;15.53;12.77;;;;;;;15.59;49.44;102213.00;5060503;28;20423;-66
2021/05/29 08:24:04;;;;;;;13.80;12.50;;;;;;;16.31;47.39;102218.22;5059998;28;20509;-65
2021/05/29 08:26:29;;;;;;;14.67;13.23;;;;;;;15.66;49.23;102220.09;5059503;28;20903;-66
2021/05/29 08:28:55;;;;;;;14.07;12.63;;;;;;;16.25;48.42;102226.03;5060553;28;20808;-66
2021/05/29 08:31:20;;;;;;;13.10;11.80;;;;;;;15.77;49.17;102228.13;5059120;28;20268;-65
2021/05/29 08:33:46;;;;;;;14.67;12.23;;;;;;;14.89;51.72;102237.41;5059703;28;20422;-65
2021/05/29 08:36:11;;;;;;;13.10;11.80;;;;;;;15.36;50.72;102226.72;5060590;28;20162;-65
2021/05/29 08:38:37;;;;;;;15.03;13.00;;;;;;;15.34;50.67;102236.31;5060088;28;20162;-66
2021/05/29 08:41:02;;;;;;;14.20;10.93;;;;;;;15.41;50.02;102229.41;5059752;28;20451;-65
2021/05/29 08:43:28;;;;;;;12.73;11.40;;;;;;;16.37;48.23;102228.78;5060427;28;20165;-64
2021/05/29 08:45:54;;;;;;;13.50;10.73;;;;;;;16.40;46.81;102233.19;5059063;28;20169;-64
2021/05/29 08:48:19;;;;;;;11.07;9.80;;;;;;;16.33;47.00;102232.25;5059806;28;20185;-66
2021/05/29 08:51:13;;;;;;;11.10;10.10;;;;;;;16.54;46.68;102235.97;5060311;28;20798;-66
2021/05/29 08:53:30;;;;;;;12.73;11.43;;;;;;;16.07;47.90;102238.13;5059684;28;20499;-67
2021/05/29 08:56:00;;;;;;;11.37;10.37;;;;;;;16.79;46.71;102230.03;5059693;28;20467;-65
2021/05/29 08:58:26;;;;;;;12.80;11.00;;;;;;;16.92;46.89;102238.94;5058839;28;20303;-65
2021/05/29 09:00:51;;;;;;;12.20;10.53;;;;;;;17.66;44.82;102231.44;5059555;28;20749;-66
2021/05/29 09:03:17;;;;;;;12.33;11.20;;;;;;;16.73;45.63;102243.16;5059452;28;20470;-65
2021/05/29 09:05:51;;;;;;;15.27;11.00;;;;;;;16.05;48.00;102249.50;5059339;28;20519;-64
2021/05/29 09:08:18;;;;;;;14.30;12.80;;;;;;;16.20;47.87;102248.81;5059302;28;20201;-65
2021/05/29 09:10:48;;;;;;;13.43;12.17;;;;;;;16.23;47.86;102259.34;5058655;28;20421;-66
2021/05/29 09:13:15;;;;;;;13.17;11.87;;;;;;;15.84;48.44;102256.28;5059208;28;20416;-66
2021/05/29 09:15:45;;;;;;;14.80;13.30;;;;;;;15.78;48.29;102259.69;5059541;28;20655;-65
2021/05/29 09:18:24;;;;;;;16.03;14.17;;;;;;;15.96;48.24;102264.31;5059231;28;20391;-66
2021/05/29 09:20:49;;;;;;;13.43;12.23;;;;;;;16.09;47.85;102260.09;5059128;28;20403;-65
2021/05/29 09:23:14;;;;;;;16.53;14.83;;;;;;;16.53;47.26;102257.91;5058935;28;20867;-66
2021/05/29 09:25:52;;;;;;;13.97;12.63;;;;;;;15.70;49.00;102256.09;5058985;28;20217;-65
2021/05/29 09:28:22;;;;;;;17.23;15.53;;;;;;;16.27;48.09;102254.13;5059024;28;20434;-66
2021/05/29 09:30:53;;;;;;;13.23;12.03;;;;;;;16.12;48.13;102254.84;5059060;28;20449;-66
2021/05/29 09:33:23;;;;;;;14.33;12.93;;;;;;;16.49;47.45;102265.78;5059057;28;20412;-65
2021/05/29 09:36:12;;;;;;;13.80;12.50;;;;;;;16.27;46.75;102263.78;5057842;28;20405;-65
2021/05/29 09:38:46;;;;;;;11.80;10.53;;;;;;;16.46;46.85;102268.34;5058805;28;20496;-65
2021/05/29 09:41:25;;;;;;;13.10;11.87;;;;;;;16.64;46.29;102265.03;5058228;28;20424;-66
2021/05/29 09:43:56;;;;;;;11.47;10.40;;;;;;;16.07;47.51;102271.47;5057909;28;20390;-64
2021/05/29 09:46:22;;;;;;;11.47;10.40;;;;;;;16.12;47.60;102268.00;5058808;28;20471;-64
2021/05/29 09:49:14;;;;;;;11.60;10.50;;;;;;;16.29;47.65;102269.94;5058123;28;20391;-64
2021/05/29 09:51:39;;;;;;;11.60;10.47;;;;;;;15.82;48.17;102271.16;5058059;28;20756;-66
2021/05/29 09:54:11;;;;;;;12.87;11.57;;;;;;;16.02;48.45;102276.69;5058387;28;20402;-65
2021/05/29 09:56:43;;;;;;;11.93;9.87;;;;;;;16.12;47.24;102275.03;5058579;28;20158;-65
2021/05/29 09:59:20;;;;;;;10.60;9.57;;;;;;;17.01;45.25;102272.38;5058355;28;20435;-65
2021/05/29 10:01:50;;;;;;;11.80;8.83;;;;;;;16.51;46.08;102265.78;5058143;28;20423;-65
2021/05/29 10:07:13;;;;;;;10.53;9.53;;;;;;;16.68;45.81;102268.56;5058448;28;20702;-65
2021/05/29 10:09:42;;;;;;;10.13;9.20;;;;;;;18.21;42.43;102255.38;5058398;28;20423;-67
2021/05/29 10:12:08;;;;;;;11.47;10.37;;;;;;;18.15;43.15;102259.78;5058136;28;20422;-66
2021/05/29 10:14:34;;;;;;;11.17;10.10;;;;;;;18.59;42.48;102265.13;5058175;28;20416;-66
2021/05/29 10:17:05;;;;;;;10.50;9.50;;;;;;;17.63;43.66;102270.09;5058056;28;20263;-66
2021/05/29 10:19:31;;;;;;;10.20;9.30;;;;;;;17.34;44.68;102268.19;5058674;28;20416;-67
2021/05/29 10:21:56;;;;;;;11.07;9.50;;;;;;;17.17;45.40;102266.34;5057797;28;20420;-66
2021/05/29 10:24:24;;;;;;;12.63;11.53;;;;;;;16.35;47.11;102280.53;5057816;28;20228;-66
2021/05/29 10:26:52;;;;;;;10.47;9.30;;;;;;;16.86;46.45;102277.47;5058472;28;20240;-66
2021/05/29 10:29:22;;;;;;;11.07;8.53;;;;;;;17.10;45.00;102280.34;5058140;28;20424;-67
2021/05/29 10:31:48;;;;;;;10.40;9.03;;;;;;;16.91;46.15;102278.44;5057957;28;20386;-67
2021/05/29 10:34:13;;;;;;;9.80;8.90;;;;;;;17.63;43.98;102275.38;5058078;28;20419;-66
2021/05/29 10:36:45;;;;;;;9.10;8.30;;;;;;;17.41;43.66;102284.94;5057322;28;20459;-67
2021/05/29 10:39:25;;;;;;;8.90;8.10;;;;;;;17.72;43.38;102278.06;5057884;28;20170;-67
2021/05/29 10:41:59;;;;;;;8.80;8.10;;;;;;;19.09;41.66;102281.88;5057756;28;20408;-65
2021/05/29 10:44:35;;;;;;;8.60;7.80;;;;;;;18.20;42.85;102283.56;5057740;28;20422;-66
2021/05/29 10:47:15;;;;;;;9.70;8.40;;;;;;;17.82;42.86;102279.88;5057423;28;20438;-66
2021/05/29 10:49:56;;;;;;;10.00;8.00;;;;;;;17.68;43.67;102284.19;5057829;28;20408;-66
2021/05/29 10:52:30;;;;;;;10.13;8.17;;;;;;;17.24;44.18;102280.44;5057752;28;20541;-65
2021/05/29 10:55:13;;;;;;;8.43;7.63;;;;;;;18.42;42.49;102280.97;5059870;28;20420;-65
2021/05/29 10:58:06;;;;;;;9.47;7.60;;;;;;;18.23;42.55;102282.69;5061320;28;20415;-66
2021/05/29 11:03:21;;;;;;;8.63;7.93;;;;;;;18.59;41.81;102275.69;5061723;28;20446;-65
2021/05/29 11:05:48;;;;;;;9.20;8.30;;;;;;;19.24;40.44;102273.94;5061726;28;20418;-70
2021/05/29 11:08:52;;;;;;;8.80;8.00;;;;;;;18.27;42.65;102287.09;5061597;28;20464;-67
2021/05/29 11:11:35;;;;;;;9.93;9.03;;;;;;;19.90;40.25;102277.28;5061624;28;20469;-67
2021/05/29 11:14:07;;;;;;;9.70;8.90;;;;;;;18.92;41.49;102280.13;5061598;28;20415;-66
2021/05/29 11:16:51;;;;;;;9.77;8.77;;;;;;;18.08;42.65;102280.88;5061728;28;20427;-66
2021/05/29 11:19:23;;;;;;;10.23;9.33;;;;;;;17.71;43.08;102284.22;5061443;28;20423;-66
2021/05/29 11:22:08;;;;;;;11.00;10.10;;;;;;;17.81;43.05;102278.09;5061533;28;20473;-67
2021/05/29 11:24:49;;;;;;;10.17;9.30;;;;;;;18.76;41.99;102281.84;5061459;28;20550;-65
2021/05/29 11:27:18;;;;;;;9.40;8.50;;;;;;;18.66;41.61;102278.34;5061433;28;20463;-66
2021/05/29 11:29:57;;;;;;;9.93;9.03;;;;;;;18.75;40.35;102273.94;5061499;28;20512;-67